createdAt,value
2022-10-19T00:02:37.134Z,100.00
2022-10-19T00:05:39.923Z,100.00
2022-10-19T00:08:43.475Z,100.00
2022-10-19T00:11:48.434Z,100.00
2022-10-19T00:14:50.943Z,100.00
2022-10-19T00:17:53.643Z,100.00
2022-10-19T00:21:06.304Z,100.00
2022-10-19T00:24:09.074Z,100.00
2022-10-19T00:27:11.535Z,100.00
2022-10-19T00:30:14.330Z,100.00
2022-10-19T00:33:21.451Z,100.00
2022-10-19T00:36:27.632Z,100.00
2022-10-19T00:39:30.017Z,100.00
2022-10-19T00:42:32.924Z,100.00
2022-10-19T00:45:35.568Z,100.00
2022-10-19T00:48:38.612Z,100.00
2022-10-19T00:51:50.760Z,100.00
2022-10-19T00:54:55.541Z,100.00
2022-10-19T00:57:58.111Z,100.00
2022-10-19T01:01:04.941Z,100.00
2022-10-19T01:04:08.793Z,100.00
2022-10-19T01:07:12.945Z,100.00
2022-10-19T01:10:15.502Z,100.00
2022-10-19T01:13:21.165Z,100.00
2022-10-19T01:17:00.885Z,100.00
2022-10-19T01:20:33.199Z,100.00
2022-10-19T01:24:13.248Z,100.00
2022-10-19T01:27:43.682Z,100.00
2022-10-19T01:31:24.419Z,100.00
2022-10-19T01:34:38.754Z,100.00
2022-10-19T01:37:52.559Z,100.00
2022-10-19T01:40:58.627Z,100.00
2022-10-19T01:44:11.394Z,100.00
2022-10-19T01:47:41.505Z,100.00
2022-10-19T01:50:55.684Z,100.00
2022-10-19T01:54:04.120Z,100.00
2022-10-19T01:57:10.323Z,100.00
2022-10-19T02:00:17.200Z,100.00
2022-10-19T02:03:20.982Z,100.00
2022-10-19T02:06:23.908Z,100.00
2022-10-19T02:09:26.639Z,100.00
2022-10-19T02:12:32.084Z,100.00
2022-10-19T02:15:38.662Z,100.00
2022-10-19T02:18:46.735Z,100.00
2022-10-19T02:21:50.294Z,100.00
2022-10-19T02:24:53.065Z,100.00
2022-10-19T02:27:55.534Z,100.00
2022-10-19T02:30:59.971Z,100.00
2022-10-19T02:34:02.630Z,100.00
2022-10-19T02:37:06.502Z,100.00
2022-10-19T02:40:09.908Z,100.00
2022-10-19T02:43:19.199Z,100.00
2022-10-19T02:46:44.230Z,100.00
2022-10-19T02:49:48.797Z,100.00
2022-10-19T02:52:51.481Z,100.00
2022-10-19T02:55:54.220Z,100.00
2022-10-19T02:58:57.167Z,100.00
2022-10-19T03:01:59.785Z,100.00
2022-10-19T03:05:02.783Z,100.00
2022-10-19T03:08:05.812Z,100.00
2022-10-19T03:11:08.257Z,97.99
2022-10-19T03:14:10.948Z,94.41
2022-10-19T03:17:13.645Z,91.73
2022-10-19T03:20:16.478Z,89.81
2022-10-19T03:23:18.860Z,89.13
2022-10-19T03:26:21.604Z,87.90
2022-10-19T03:29:24.025Z,88.44
2022-10-19T03:32:26.835Z,87.91
2022-10-19T03:35:29.275Z,87.57
2022-10-19T03:38:31.997Z,87.72
2022-10-19T03:41:36.576Z,88.77
2022-10-19T03:44:39.252Z,89.56
2022-10-19T03:47:41.652Z,88.21
2022-10-19T03:51:01.814Z,87.60
2022-10-19T03:54:06.968Z,86.61
2022-10-19T03:57:10.397Z,87.48
2022-10-19T04:00:13.410Z,88.46
2022-10-19T04:03:15.667Z,88.68
2022-10-19T04:06:21.998Z,89.47
2022-10-19T04:09:24.653Z,90.18
2022-10-19T04:12:27.370Z,90.63
2022-10-19T04:15:29.866Z,90.95
2022-10-19T04:18:32.590Z,91.28
2022-10-19T04:21:37.863Z,91.32
2022-10-19T04:24:40.523Z,91.86
2022-10-19T04:27:43.011Z,93.05
2022-10-19T04:30:45.716Z,93.72
2022-10-19T04:33:48.127Z,94.65
2022-10-19T04:36:50.859Z,95.49
2022-10-19T04:39:53.333Z,95.49
2022-10-19T04:42:56.014Z,95.84
2022-10-19T04:46:03.149Z,96.41
2022-10-19T04:49:06.957Z,95.96
2022-10-19T04:52:09.449Z,96.43
2022-10-19T04:55:12.121Z,97.17
2022-10-19T04:58:14.499Z,97.27
2022-10-19T05:01:21.904Z,98.50
2022-10-19T05:04:24.443Z,98.49
2022-10-19T05:07:27.263Z,99.38
2022-10-19T05:10:29.798Z,99.23
2022-10-19T05:13:33.493Z,100.00
2022-10-19T05:16:35.997Z,99.76
2022-10-19T05:19:38.897Z,100.00
2022-10-19T05:22:41.657Z,100.00
2022-10-19T05:25:44.425Z,100.00
2022-10-19T05:28:49.319Z,100.00
2022-10-19T05:31:52.032Z,100.00
2022-10-19T05:34:54.942Z,100.00
2022-10-19T05:37:57.619Z,100.00
2022-10-19T05:41:01.073Z,100.00
2022-10-19T05:44:05.200Z,100.00
2022-10-19T05:47:07.668Z,100.00
2022-10-19T05:50:10.561Z,100.00
2022-10-19T05:53:13.033Z,100.00
2022-10-19T05:56:21.897Z,100.00
2022-10-19T05:59:24.427Z,100.00
2022-10-19T06:02:27.377Z,100.00
2022-10-19T06:05:30.043Z,100.00
2022-10-19T06:08:33.749Z,100.00
2022-10-19T06:11:39.262Z,100.00
2022-10-19T06:14:42.919Z,100.00
2022-10-19T06:17:45.614Z,100.00
2022-10-19T06:20:50.196Z,100.00
2022-10-19T06:24:02.819Z,100.00
2022-10-19T06:27:06.605Z,100.00
2022-10-19T06:30:09.962Z,100.00
2022-10-19T06:33:13.011Z,100.00
2022-10-19T06:36:21.931Z,100.00
2022-10-19T06:39:24.342Z,99.96
2022-10-19T06:42:27.027Z,99.65
2022-10-19T06:45:33.450Z,98.03
2022-10-19T06:48:38.782Z,96.82
2022-10-19T06:51:41.326Z,96.18
2022-10-19T06:54:44.093Z,95.52
2022-10-19T06:57:46.468Z,95.43
2022-10-19T07:00:58.578Z,95.04
2022-10-19T07:04:01.153Z,94.77
2022-10-19T07:07:04.410Z,94.03
2022-10-19T07:10:08.490Z,93.50
2022-10-19T07:13:11.477Z,92.71
2022-10-19T07:16:19.661Z,92.10
2022-10-19T07:19:27.443Z,92.18
2022-10-19T07:22:29.901Z,92.51
2022-10-19T07:25:32.881Z,91.60
2022-10-19T07:28:35.873Z,91.30
2022-10-19T07:31:38.678Z,90.59
2022-10-19T07:34:41.244Z,90.31
2022-10-19T07:37:43.956Z,89.87
2022-10-19T07:40:48.451Z,89.40
2022-10-19T07:43:52.211Z,89.33
2022-10-19T07:46:54.664Z,88.66
2022-10-19T07:49:57.337Z,89.01
2022-10-19T07:52:59.761Z,88.27
2022-10-19T07:56:09.461Z,87.53
2022-10-19T07:59:14.343Z,86.77
2022-10-19T08:02:18.315Z,85.91
2022-10-19T08:05:21.165Z,85.63
2022-10-19T08:08:24.623Z,86.16
2022-10-19T08:11:30.778Z,84.50
2022-10-19T08:14:33.626Z,84.89
2022-10-19T08:17:37.037Z,84.13
2022-10-19T08:20:45.699Z,83.94
2022-10-19T08:23:49.254Z,82.96
2022-10-19T08:26:52.177Z,81.79
2022-10-19T08:29:55.087Z,80.96
2022-10-19T08:32:57.505Z,81.03
2022-10-19T08:36:00.323Z,80.63
2022-10-19T08:39:04.922Z,80.20
2022-10-19T08:42:18.644Z,78.68
2022-10-19T08:45:43.128Z,78.00
2022-10-19T08:48:46.388Z,78.62
2022-10-19T08:51:54.906Z,77.90
2022-10-19T08:54:58.916Z,77.84
2022-10-19T08:58:30.907Z,76.49
2022-10-19T09:01:56.874Z,76.38
2022-10-19T09:05:05.742Z,75.28
2022-10-19T09:08:14.177Z,74.58
2022-10-19T09:11:27.771Z,73.52
2022-10-19T09:14:38.641Z,72.89
2022-10-19T09:17:43.058Z,71.79
2022-10-19T09:20:49.376Z,68.90
2022-10-19T09:23:55.496Z,68.87
2022-10-19T09:27:02.351Z,67.35
2022-10-19T09:30:14.685Z,66.13
2022-10-19T09:33:26.938Z,67.01
2022-10-19T09:36:50.150Z,66.00
2022-10-19T09:39:55.500Z,64.55
2022-10-19T09:42:59.422Z,62.97
2022-10-19T09:46:19.969Z,63.77
2022-10-19T09:49:49.723Z,62.75
2022-10-19T09:52:56.663Z,62.38
2022-10-19T09:56:06.962Z,61.96
2022-10-19T09:59:22.405Z,61.35
2022-10-19T10:02:33.098Z,61.59
2022-10-19T10:05:39.157Z,60.88
2022-10-19T10:08:52.678Z,61.14
2022-10-19T10:12:00.195Z,60.33
2022-10-19T10:15:06.488Z,60.46
2022-10-19T10:18:18.190Z,58.62
2022-10-19T10:21:27.464Z,57.62
2022-10-19T10:24:34.422Z,59.95
2022-10-19T10:27:39.198Z,61.57
2022-10-19T10:30:45.805Z,61.09
2022-10-19T10:34:11.165Z,61.55
2022-10-19T10:37:35.697Z,57.98
2022-10-19T10:40:39.541Z,54.49
2022-10-19T10:43:55.431Z,53.00
2022-10-19T10:47:00.630Z,51.19
2022-10-19T10:50:06.791Z,50.90
2022-10-19T10:53:29.157Z,51.51
2022-10-19T10:56:34.362Z,52.55
2022-10-19T10:59:45.868Z,54.10
2022-10-19T11:03:23.837Z,54.84
2022-10-19T11:06:27.000Z,55.18
2022-10-19T11:09:36.504Z,55.08
2022-10-19T11:12:45.302Z,53.70
2022-10-19T11:15:59.358Z,51.07
2022-10-19T11:19:24.485Z,49.73
2022-10-19T11:22:34.375Z,49.54
2022-10-19T11:25:55.011Z,49.88
2022-10-19T11:29:17.013Z,50.23
2022-10-19T11:32:29.383Z,49.89
2022-10-19T11:35:47.476Z,51.34
2022-10-19T11:38:56.135Z,53.38
2022-10-19T11:42:06.308Z,53.65
2022-10-19T11:45:41.665Z,54.67
2022-10-19T11:49:03.347Z,53.31
2022-10-19T11:52:14.209Z,53.58
2022-10-19T11:55:43.601Z,52.78
2022-10-19T11:59:07.167Z,51.38
2022-10-19T12:02:51.347Z,51.45
2022-10-19T12:06:08.087Z,50.34
2022-10-19T12:09:36.745Z,50.62
2022-10-19T12:12:45.763Z,51.46
2022-10-19T12:15:53.814Z,51.12
2022-10-19T12:19:01.034Z,51.22
2022-10-19T12:22:07.143Z,49.38
2022-10-19T12:25:14.612Z,49.29
2022-10-19T12:28:29.548Z,49.08
2022-10-19T12:31:36.085Z,47.84
2022-10-19T12:34:56.420Z,47.83
2022-10-19T12:38:06.887Z,47.93
2022-10-19T12:41:26.472Z,48.80
2022-10-19T12:44:44.488Z,49.44
2022-10-19T12:48:25.583Z,49.83
2022-10-19T12:51:45.383Z,49.11
2022-10-19T12:54:47.906Z,48.34
2022-10-19T12:58:17.504Z,47.88
2022-10-19T13:01:42.148Z,47.71
2022-10-19T13:04:54.492Z,47.90
2022-10-19T13:07:58.207Z,46.15
2022-10-19T13:11:15.227Z,46.26
2022-10-19T13:14:17.685Z,46.58
2022-10-19T13:17:40.838Z,46.83
2022-10-19T13:20:53.618Z,46.72
2022-10-19T13:24:36.543Z,47.08
2022-10-19T13:27:39.697Z,46.28
2022-10-19T13:30:46.368Z,45.33
2022-10-19T13:33:49.865Z,45.23
2022-10-19T13:37:00.778Z,44.37
2022-10-19T13:40:23.645Z,43.24
2022-10-19T13:43:32.807Z,44.98
2022-10-19T13:47:03.856Z,45.31
2022-10-19T13:50:12.979Z,45.54
2022-10-19T13:53:18.804Z,41.75
2022-10-19T13:56:49.621Z,39.78
2022-10-19T14:00:01.925Z,38.91
2022-10-19T14:03:40.321Z,41.25
2022-10-19T14:06:52.620Z,42.84
2022-10-19T14:10:08.446Z,44.08
2022-10-19T14:13:15.415Z,44.41
2022-10-19T14:16:20.805Z,44.83
2022-10-19T14:19:30.963Z,45.25
2022-10-19T14:22:34.513Z,45.24
2022-10-19T14:25:37.447Z,45.93
2022-10-19T14:28:41.068Z,46.82
2022-10-19T14:31:43.817Z,47.38
2022-10-19T14:34:48.308Z,47.76
2022-10-19T14:37:51.410Z,48.58
2022-10-19T14:40:56.007Z,48.70
2022-10-19T14:44:00.575Z,49.21
2022-10-19T14:47:15.137Z,48.52
2022-10-19T14:50:23.416Z,48.11
2022-10-19T14:54:01.106Z,47.48
2022-10-19T14:57:08.523Z,46.99
2022-10-19T15:00:20.970Z,46.75
2022-10-19T15:03:28.172Z,46.80
2022-10-19T15:06:35.510Z,47.19
2022-10-19T15:09:48.171Z,48.08
2022-10-19T15:12:52.563Z,49.24
2022-10-19T15:15:55.765Z,50.20
2022-10-19T15:19:04.371Z,51.04
2022-10-19T15:22:19.225Z,51.70
2022-10-19T15:25:31.084Z,51.96
2022-10-19T15:28:41.460Z,51.37
2022-10-19T15:31:44.278Z,51.69
2022-10-19T15:34:47.078Z,52.41
2022-10-19T15:37:50.742Z,52.60
2022-10-19T15:40:59.170Z,53.04
2022-10-19T15:44:08.360Z,53.46
2022-10-19T15:47:20.168Z,53.89
2022-10-19T15:50:36.457Z,54.47
2022-10-19T15:53:39.091Z,54.90
2022-10-19T15:56:41.875Z,55.68
2022-10-19T15:59:44.896Z,56.46
2022-10-19T16:02:47.375Z,56.70
2022-10-19T16:05:50.216Z,57.14
2022-10-19T16:08:54.196Z,57.49
2022-10-19T16:11:57.470Z,57.46
2022-10-19T16:15:01.100Z,56.48
2022-10-19T16:18:04.066Z,57.00
2022-10-19T16:21:07.354Z,57.60
2022-10-19T16:24:10.290Z,57.86
2022-10-19T16:27:16.386Z,58.13
2022-10-19T16:30:19.750Z,58.63
2022-10-19T16:33:23.270Z,58.78
2022-10-19T16:36:26.322Z,57.68
2022-10-19T16:39:29.524Z,58.51
2022-10-19T16:42:33.355Z,59.17
2022-10-19T16:45:36.286Z,58.93
2022-10-19T16:48:39.197Z,58.93
2022-10-19T16:51:42.480Z,59.09
2022-10-19T16:54:47.862Z,59.74
2022-10-19T16:57:52.491Z,60.13
2022-10-19T17:00:56.326Z,61.16
2022-10-19T17:04:00.622Z,61.95
2022-10-19T17:07:04.197Z,62.27
2022-10-19T17:10:07.449Z,62.12
2022-10-19T17:13:10.945Z,62.86
2022-10-19T17:16:14.841Z,63.18
2022-10-19T17:19:18.171Z,63.61
2022-10-19T17:22:20.871Z,63.48
2022-10-19T17:25:24.001Z,64.56
2022-10-19T17:28:28.786Z,64.56
2022-10-19T17:31:34.605Z,63.86
2022-10-19T17:34:37.354Z,63.06
2022-10-19T17:37:40.434Z,63.52
2022-10-19T17:40:47.615Z,63.58
2022-10-19T17:43:54.468Z,63.64
2022-10-19T17:46:57.297Z,64.01
2022-10-19T17:50:00.781Z,64.60
2022-10-19T17:53:04.607Z,65.29
2022-10-19T17:56:08.370Z,66.06
2022-10-19T17:59:11.433Z,66.79
2022-10-19T18:02:14.436Z,66.61
2022-10-19T18:05:17.617Z,66.78
2022-10-19T18:08:20.316Z,67.45
2022-10-19T18:11:37.244Z,68.13
2022-10-19T18:14:40.564Z,68.56
2022-10-19T18:17:43.802Z,68.54
2022-10-19T18:20:47.480Z,68.90
2022-10-19T18:23:53.531Z,69.98
2022-10-19T18:26:56.280Z,70.67
2022-10-19T18:29:59.380Z,71.30
2022-10-19T18:33:02.232Z,71.74
2022-10-19T18:36:06.752Z,72.81
2022-10-19T18:39:11.437Z,73.12
2022-10-19T18:42:16.413Z,74.32
2022-10-19T18:45:19.473Z,75.75
2022-10-19T18:48:25.253Z,75.10
2022-10-19T18:51:29.177Z,75.27
2022-10-19T18:54:32.160Z,75.79
2022-10-19T18:57:34.915Z,76.63
2022-10-19T19:00:45.578Z,76.09
2022-10-19T19:03:49.904Z,76.24
2022-10-19T19:06:53.324Z,77.47
2022-10-19T19:09:56.475Z,77.39
2022-10-19T19:13:00.540Z,77.87
2022-10-19T19:16:03.300Z,77.38
2022-10-19T19:19:07.646Z,77.70
2022-10-19T19:22:10.521Z,78.27
2022-10-19T19:25:13.469Z,78.85
2022-10-19T19:28:16.214Z,78.35
2022-10-19T19:31:20.349Z,77.05
2022-10-19T19:34:23.866Z,76.92
2022-10-19T19:37:26.834Z,77.42
2022-10-19T19:40:34.310Z,78.20
2022-10-19T19:43:38.369Z,76.67
2022-10-19T19:46:42.256Z,74.26
2022-10-19T19:49:45.477Z,74.56
2022-10-19T19:52:48.624Z,74.84
2022-10-19T19:55:51.682Z,75.62
2022-10-19T19:58:59.119Z,76.90
2022-10-19T20:02:02.868Z,76.97
2022-10-19T20:05:05.970Z,76.53
2022-10-19T20:08:09.349Z,76.30
2022-10-19T20:11:14.595Z,75.47
2022-10-19T20:14:18.786Z,73.96
2022-10-19T20:17:23.835Z,74.50
2022-10-19T20:20:29.350Z,74.86
2022-10-19T20:23:32.843Z,75.54
2022-10-19T20:26:35.876Z,74.60
2022-10-19T20:29:38.801Z,75.03
2022-10-19T20:32:41.564Z,75.21
2022-10-19T20:35:44.550Z,74.93
2022-10-19T20:38:58.015Z,75.73
2022-10-19T20:42:01.217Z,74.86
2022-10-19T20:45:07.288Z,76.12
2022-10-19T20:48:15.356Z,75.90
2022-10-19T20:51:19.300Z,76.16
2022-10-19T20:54:22.344Z,76.21
2022-10-19T20:57:25.200Z,77.01
2022-10-19T21:00:30.893Z,77.86
2022-10-19T21:03:33.528Z,78.46
2022-10-19T21:06:44.606Z,77.58
2022-10-19T21:09:47.122Z,77.92
2022-10-19T21:12:49.836Z,78.58
2022-10-19T21:15:54.600Z,78.46
2022-10-19T21:18:57.496Z,78.14
2022-10-19T21:22:02.262Z,78.24
2022-10-19T21:25:05.452Z,78.77
2022-10-19T21:28:08.041Z,78.73
2022-10-19T21:31:10.816Z,79.29
2022-10-19T21:34:18.056Z,79.04
2022-10-19T21:37:20.769Z,79.13
2022-10-19T21:40:25.716Z,78.82
2022-10-19T21:43:28.911Z,78.19
2022-10-19T21:46:31.494Z,78.80
2022-10-19T21:49:34.785Z,78.84
2022-10-19T21:52:37.113Z,79.10
2022-10-19T21:55:39.923Z,78.94
2022-10-19T21:58:47.315Z,79.63
2022-10-19T22:01:50.229Z,79.07
2022-10-19T22:04:53.004Z,79.16
2022-10-19T22:07:55.567Z,78.82
2022-10-19T22:11:08.047Z,77.61
2022-10-19T22:14:13.046Z,78.44
2022-10-19T22:17:15.721Z,79.57
2022-10-19T22:20:18.492Z,79.95
2022-10-19T22:23:21.185Z,80.26
2022-10-19T22:26:26.600Z,80.46
2022-10-19T22:29:29.339Z,80.00
2022-10-19T22:32:31.783Z,80.09
2022-10-19T22:35:34.509Z,79.09
2022-10-19T22:38:37.037Z,80.20
2022-10-19T22:42:36.364Z,80.52
2022-10-19T22:45:57.645Z,80.49
2022-10-19T22:49:00.635Z,81.00
2022-10-19T22:52:03.506Z,82.23
2022-10-19T22:55:06.548Z,82.47
2022-10-19T22:58:09.580Z,82.28
2022-10-19T23:01:14.787Z,82.40
2022-10-19T23:04:17.367Z,82.13
2022-10-19T23:07:20.116Z,81.71
2022-10-19T23:10:23.293Z,82.20
2022-10-19T23:13:26.100Z,82.38
2022-10-19T23:19:36.305Z,82.66
2022-10-19T23:22:39.127Z,82.77
2022-10-19T23:25:41.829Z,82.87
2022-10-19T23:28:46.073Z,82.63
2022-10-19T23:31:50.662Z,84.17
2022-10-19T23:34:53.137Z,83.83
2022-10-19T23:37:55.930Z,84.38
2022-10-19T23:40:58.481Z,85.10
2022-10-19T23:44:01.163Z,85.24
2022-10-19T23:47:03.547Z,85.56
2022-10-19T23:50:06.766Z,85.43
2022-10-19T23:53:09.547Z,85.61
2022-10-19T23:56:15.627Z,86.95
2022-10-19T23:59:18.054Z,87.24
